sensor_id;sensor_type;location;lat;lon;timestamp;P1;durP1;ratioP1;P2;durP2;ratioP2
46116;SDS011;32591;48.102;11.772;2022-11-15T00:04:50;7.38;;;4.95;;
46116;SDS011;32591;48.102;11.772;2022-11-15T00:09:45;8.40;;;5.38;;
46116;SDS011;32591;48.102;11.772;2022-11-15T00:12:12;8.82;;;5.00;;
46116;SDS011;32591;48.102;11.772;2022-11-15T00:17:06;9.82;;;5.25;;
46116;SDS011;32591;48.102;11.772;2022-11-15T00:19:33;11.00;;;6.10;;
46116;SDS011;32591;48.102;11.772;2022-11-15T00:22:00;8.90;;;5.47;;
46116;SDS011;32591;48.102;11.772;2022-11-15T00:24:28;8.73;;;5.50;;
46116;SDS011;32591;48.102;11.772;2022-11-15T00:26:55;7.38;;;5.13;;
46116;SDS011;32591;48.102;11.772;2022-11-15T00:29:22;9.05;;;4.97;;
46116;SDS011;32591;48.102;11.772;2022-11-15T00:31:49;8.82;;;5.85;;
46116;SDS011;32591;48.102;11.772;2022-11-15T00:34:16;9.45;;;5.13;;
46116;SDS011;32591;48.102;11.772;2022-11-15T00:36:43;12.25;;;6.20;;
46116;SDS011;32591;48.102;11.772;2022-11-15T00:41:38;7.70;;;4.75;;
46116;SDS011;32591;48.102;11.772;2022-11-15T00:44:05;6.93;;;5.05;;
46116;SDS011;32591;48.102;11.772;2022-11-15T00:48:59;9.23;;;5.03;;
46116;SDS011;32591;48.102;11.772;2022-11-15T00:53:52;9.15;;;4.57;;
46116;SDS011;32591;48.102;11.772;2022-11-15T00:58:47;8.60;;;5.63;;
46116;SDS011;32591;48.102;11.772;2022-11-15T01:01:14;8.45;;;4.55;;
46116;SDS011;32591;48.102;11.772;2022-11-15T01:03:41;6.18;;;5.05;;
46116;SDS011;32591;48.102;11.772;2022-11-15T01:06:08;5.85;;;4.70;;
46116;SDS011;32591;48.102;11.772;2022-11-15T01:08:37;8.20;;;5.07;;
46116;SDS011;32591;48.102;11.772;2022-11-15T01:11:05;6.50;;;4.82;;
46116;SDS011;32591;48.102;11.772;2022-11-15T01:13:36;8.13;;;5.32;;
46116;SDS011;32591;48.102;11.772;2022-11-15T01:16:10;9.52;;;4.93;;
46116;SDS011;32591;48.102;11.772;2022-11-15T01:18:41;6.63;;;4.22;;
46116;SDS011;32591;48.102;11.772;2022-11-15T01:21:09;9.25;;;5.63;;
46116;SDS011;32591;48.102;11.772;2022-11-15T01:23:39;11.10;;;5.18;;
46116;SDS011;32591;48.102;11.772;2022-11-15T01:26:09;6.40;;;4.68;;
46116;SDS011;32591;48.102;11.772;2022-11-15T01:28:39;7.40;;;4.70;;
46116;SDS011;32591;48.102;11.772;2022-11-15T01:31:11;8.40;;;4.53;;
46116;SDS011;32591;48.102;11.772;2022-11-15T01:33:40;8.82;;;4.50;;
46116;SDS011;32591;48.102;11.772;2022-11-15T01:36:08;7.07;;;4.03;;
46116;SDS011;32591;48.102;11.772;2022-11-15T01:38:38;6.35;;;4.65;;
46116;SDS011;32591;48.102;11.772;2022-11-15T01:41:05;6.38;;;4.18;;
46116;SDS011;32591;48.102;11.772;2022-11-15T01:43:34;8.95;;;5.05;;
46116;SDS011;32591;48.102;11.772;2022-11-15T01:46:04;7.35;;;4.55;;
46116;SDS011;32591;48.102;11.772;2022-11-15T01:48:36;8.30;;;4.60;;
46116;SDS011;32591;48.102;11.772;2022-11-15T01:51:04;9.57;;;4.80;;
46116;SDS011;32591;48.102;11.772;2022-11-15T01:53:36;8.32;;;4.75;;
46116;SDS011;32591;48.102;11.772;2022-11-15T01:56:07;8.65;;;4.43;;
46116;SDS011;32591;48.102;11.772;2022-11-15T01:58:37;8.27;;;4.88;;
46116;SDS011;32591;48.102;11.772;2022-11-15T02:01:05;7.57;;;3.88;;
46116;SDS011;32591;48.102;11.772;2022-11-15T02:03:34;9.98;;;4.57;;
46116;SDS011;32591;48.102;11.772;2022-11-15T02:06:11;8.73;;;4.72;;
46116;SDS011;32591;48.102;11.772;2022-11-15T02:08:38;10.20;;;4.72;;
46116;SDS011;32591;48.102;11.772;2022-11-15T02:11:07;9.52;;;4.18;;
46116;SDS011;32591;48.102;11.772;2022-11-15T02:13:34;9.13;;;4.60;;
46116;SDS011;32591;48.102;11.772;2022-11-15T02:16:04;7.28;;;4.45;;
46116;SDS011;32591;48.102;11.772;2022-11-15T02:18:41;7.80;;;4.47;;
46116;SDS011;32591;48.102;11.772;2022-11-15T02:21:17;10.10;;;5.80;;
46116;SDS011;32591;48.102;11.772;2022-11-15T02:27:16;7.53;;;5.03;;
46116;SDS011;32591;48.102;11.772;2022-11-15T02:33:07;8.48;;;4.32;;
46116;SDS011;32591;48.102;11.772;2022-11-15T02:35:48;8.63;;;3.78;;
46116;SDS011;32591;48.102;11.772;2022-11-15T02:38:26;10.50;;;4.45;;
46116;SDS011;32591;48.102;11.772;2022-11-15T02:41:04;8.25;;;4.95;;
46116;SDS011;32591;48.102;11.772;2022-11-15T02:43:36;7.63;;;4.22;;
46116;SDS011;32591;48.102;11.772;2022-11-15T02:46:27;6.65;;;3.70;;
46116;SDS011;32591;48.102;11.772;2022-11-15T02:49:17;6.35;;;4.65;;
46116;SDS011;32591;48.102;11.772;2022-11-15T02:51:45;6.95;;;3.80;;
46116;SDS011;32591;48.102;11.772;2022-11-15T02:54:15;7.78;;;4.22;;
46116;SDS011;32591;48.102;11.772;2022-11-15T02:56:49;6.35;;;4.07;;
46116;SDS011;32591;48.102;11.772;2022-11-15T03:02:22;6.35;;;4.18;;
46116;SDS011;32591;48.102;11.772;2022-11-15T03:05:11;5.10;;;3.63;;
46116;SDS011;32591;48.102;11.772;2022-11-15T03:07:48;7.47;;;4.00;;
46116;SDS011;32591;48.102;11.772;2022-11-15T03:10:22;7.72;;;4.50;;
46116;SDS011;32591;48.102;11.772;2022-11-15T03:12:54;6.70;;;3.78;;
46116;SDS011;32591;48.102;11.772;2022-11-15T03:15:26;6.70;;;4.35;;
46116;SDS011;32591;48.102;11.772;2022-11-15T03:17:59;6.63;;;3.60;;
46116;SDS011;32591;48.102;11.772;2022-11-15T03:20:30;6.05;;;3.67;;
46116;SDS011;32591;48.102;11.772;2022-11-15T03:23:00;4.95;;;3.30;;
46116;SDS011;32591;48.102;11.772;2022-11-15T03:25:32;6.35;;;3.70;;
46116;SDS011;32591;48.102;11.772;2022-11-15T03:28:04;5.30;;;3.17;;
46116;SDS011;32591;48.102;11.772;2022-11-15T03:30:35;7.03;;;3.40;;
46116;SDS011;32591;48.102;11.772;2022-11-15T03:33:06;5.53;;;3.95;;
46116;SDS011;32591;48.102;11.772;2022-11-15T03:35:37;5.18;;;3.28;;
46116;SDS011;32591;48.102;11.772;2022-11-15T03:38:10;6.57;;;3.22;;
46116;SDS011;32591;48.102;11.772;2022-11-15T03:40:42;7.32;;;3.75;;
46116;SDS011;32591;48.102;11.772;2022-11-15T03:43:20;5.00;;;3.42;;
46116;SDS011;32591;48.102;11.772;2022-11-15T03:48:27;5.85;;;3.15;;
46116;SDS011;32591;48.102;11.772;2022-11-15T03:51:01;6.45;;;3.58;;
46116;SDS011;32591;48.102;11.772;2022-11-15T03:53:29;5.38;;;3.30;;
46116;SDS011;32591;48.102;11.772;2022-11-15T03:55:57;6.22;;;3.55;;
46116;SDS011;32591;48.102;11.772;2022-11-15T03:58:24;5.88;;;3.55;;
46116;SDS011;32591;48.102;11.772;2022-11-15T04:00:51;4.75;;;3.17;;
46116;SDS011;32591;48.102;11.772;2022-11-15T04:05:46;4.82;;;3.63;;
46116;SDS011;32591;48.102;11.772;2022-11-15T04:08:13;7.88;;;3.65;;
46116;SDS011;32591;48.102;11.772;2022-11-15T04:10:40;5.10;;;3.45;;
46116;SDS011;32591;48.102;11.772;2022-11-15T04:13:07;5.05;;;3.22;;
46116;SDS011;32591;48.102;11.772;2022-11-15T04:15:34;6.10;;;3.17;;
46116;SDS011;32591;48.102;11.772;2022-11-15T04:18:01;5.22;;;3.28;;
46116;SDS011;32591;48.102;11.772;2022-11-15T04:20:29;3.92;;;2.90;;
46116;SDS011;32591;48.102;11.772;2022-11-15T04:23:16;5.50;;;3.30;;
46116;SDS011;32591;48.102;11.772;2022-11-15T04:26:04;5.30;;;3.42;;
46116;SDS011;32591;48.102;11.772;2022-11-15T04:28:33;5.28;;;3.15;;
46116;SDS011;32591;48.102;11.772;2022-11-15T04:31:00;8.35;;;3.45;;
46116;SDS011;32591;48.102;11.772;2022-11-15T04:33:27;6.88;;;3.50;;
46116;SDS011;32591;48.102;11.772;2022-11-15T04:38:40;5.70;;;3.72;;
46116;SDS011;32591;48.102;11.772;2022-11-15T04:41:07;5.22;;;3.17;;
46116;SDS011;32591;48.102;11.772;2022-11-15T04:46:01;4.47;;;2.80;;
46116;SDS011;32591;48.102;11.772;2022-11-15T04:48:28;5.15;;;3.33;;
46116;SDS011;32591;48.102;11.772;2022-11-15T04:53:21;4.47;;;3.00;;
46116;SDS011;32591;48.102;11.772;2022-11-15T05:00:43;7.18;;;3.03;;
46116;SDS011;32591;48.102;11.772;2022-11-15T05:03:10;5.68;;;3.33;;
46116;SDS011;32591;48.102;11.772;2022-11-15T05:05:55;6.47;;;3.45;;
46116;SDS011;32591;48.102;11.772;2022-11-15T05:08:24;4.20;;;2.88;;
46116;SDS011;32591;48.102;11.772;2022-11-15T05:10:52;6.05;;;3.05;;
46116;SDS011;32591;48.102;11.772;2022-11-15T05:13:19;5.65;;;3.60;;
46116;SDS011;32591;48.102;11.772;2022-11-15T05:15:46;4.43;;;3.08;;
46116;SDS011;32591;48.102;11.772;2022-11-15T05:18:13;4.47;;;3.10;;
46116;SDS011;32591;48.102;11.772;2022-11-15T05:20:40;5.50;;;3.10;;
46116;SDS011;32591;48.102;11.772;2022-11-15T05:25:35;4.60;;;2.83;;
46116;SDS011;32591;48.102;11.772;2022-11-15T05:28:04;6.00;;;3.22;;
46116;SDS011;32591;48.102;11.772;2022-11-15T05:30:31;6.57;;;3.13;;
46116;SDS011;32591;48.102;11.772;2022-11-15T05:35:27;5.37;;;3.20;;
46116;SDS011;32591;48.102;11.772;2022-11-15T05:37:58;4.93;;;3.47;;
46116;SDS011;32591;48.102;11.772;2022-11-15T05:40:25;4.82;;;2.38;;
46116;SDS011;32591;48.102;11.772;2022-11-15T05:42:53;4.80;;;2.88;;
46116;SDS011;32591;48.102;11.772;2022-11-15T05:45:21;5.00;;;3.08;;
46116;SDS011;32591;48.102;11.772;2022-11-15T05:47:49;5.00;;;3.03;;
46116;SDS011;32591;48.102;11.772;2022-11-15T05:50:17;4.55;;;3.10;;
46116;SDS011;32591;48.102;11.772;2022-11-15T05:52:45;5.72;;;3.10;;
46116;SDS011;32591;48.102;11.772;2022-11-15T05:55:13;5.28;;;3.13;;
46116;SDS011;32591;48.102;11.772;2022-11-15T05:57:40;5.18;;;3.35;;
46116;SDS011;32591;48.102;11.772;2022-11-15T06:00:08;4.63;;;2.63;;
46116;SDS011;32591;48.102;11.772;2022-11-15T06:02:37;6.38;;;3.40;;
46116;SDS011;32591;48.102;11.772;2022-11-15T06:05:05;6.32;;;3.50;;
46116;SDS011;32591;48.102;11.772;2022-11-15T06:07:32;4.80;;;2.95;;
46116;SDS011;32591;48.102;11.772;2022-11-15T06:12:26;4.85;;;3.40;;
46116;SDS011;32591;48.102;11.772;2022-11-15T06:17:19;5.22;;;2.92;;
46116;SDS011;32591;48.102;11.772;2022-11-15T06:22:14;3.83;;;2.67;;
46116;SDS011;32591;48.102;11.772;2022-11-15T06:27:09;4.63;;;2.70;;
46116;SDS011;32591;48.102;11.772;2022-11-15T06:29:37;4.60;;;3.00;;
46116;SDS011;32591;48.102;11.772;2022-11-15T06:32:04;5.40;;;3.20;;
46116;SDS011;32591;48.102;11.772;2022-11-15T06:34:31;7.03;;;3.75;;
46116;SDS011;32591;48.102;11.772;2022-11-15T06:41:53;6.97;;;3.30;;
46116;SDS011;32591;48.102;11.772;2022-11-15T06:46:47;7.07;;;3.90;;
46116;SDS011;32591;48.102;11.772;2022-11-15T06:51:42;4.97;;;3.83;;
46116;SDS011;32591;48.102;11.772;2022-11-15T06:54:10;7.05;;;4.13;;
46116;SDS011;32591;48.102;11.772;2022-11-15T06:56:37;7.65;;;4.93;;
46116;SDS011;32591;48.102;11.772;2022-11-15T06:59:04;12.32;;;5.90;;
46116;SDS011;32591;48.102;11.772;2022-11-15T07:03:58;9.07;;;4.55;;
46116;SDS011;32591;48.102;11.772;2022-11-15T07:06:25;6.05;;;3.70;;
46116;SDS011;32591;48.102;11.772;2022-11-15T07:08:52;5.60;;;3.55;;
46116;SDS011;32591;48.102;11.772;2022-11-15T07:16:14;5.38;;;3.72;;
46116;SDS011;32591;48.102;11.772;2022-11-15T07:18:41;6.32;;;3.40;;
46116;SDS011;32591;48.102;11.772;2022-11-15T07:23:36;5.28;;;2.85;;
46116;SDS011;32591;48.102;11.772;2022-11-15T07:26:04;7.20;;;2.75;;
46116;SDS011;32591;48.102;11.772;2022-11-15T07:28:34;5.93;;;2.85;;
46116;SDS011;32591;48.102;11.772;2022-11-15T07:31:01;5.20;;;3.40;;
46116;SDS011;32591;48.102;11.772;2022-11-15T07:33:29;5.63;;;3.00;;
46116;SDS011;32591;48.102;11.772;2022-11-15T07:35:58;5.38;;;3.05;;
46116;SDS011;32591;48.102;11.772;2022-11-15T07:38:27;5.35;;;2.95;;
46116;SDS011;32591;48.102;11.772;2022-11-15T07:40:55;6.38;;;2.95;;
46116;SDS011;32591;48.102;11.772;2022-11-15T07:43:24;6.07;;;2.63;;
46116;SDS011;32591;48.102;11.772;2022-11-15T07:45:54;3.92;;;2.78;;
46116;SDS011;32591;48.102;11.772;2022-11-15T07:48:21;3.72;;;2.58;;
46116;SDS011;32591;48.102;11.772;2022-11-15T07:50:48;4.20;;;2.97;;
46116;SDS011;32591;48.102;11.772;2022-11-15T07:53:16;4.47;;;2.72;;
46116;SDS011;32591;48.102;11.772;2022-11-15T07:55:42;4.28;;;2.83;;
46116;SDS011;32591;48.102;11.772;2022-11-15T08:00:38;5.40;;;3.22;;
46116;SDS011;32591;48.102;11.772;2022-11-15T08:03:07;5.60;;;3.67;;
46116;SDS011;32591;48.102;11.772;2022-11-15T08:05:36;4.30;;;3.00;;
46116;SDS011;32591;48.102;11.772;2022-11-15T08:08:04;3.13;;;2.22;;
46116;SDS011;32591;48.102;11.772;2022-11-15T08:10:32;3.83;;;2.70;;
46116;SDS011;32591;48.102;11.772;2022-11-15T08:13:01;4.45;;;2.80;;
46116;SDS011;32591;48.102;11.772;2022-11-15T08:15:31;3.33;;;2.47;;
46116;SDS011;32591;48.102;11.772;2022-11-15T08:18:00;5.20;;;3.05;;
46116;SDS011;32591;48.102;11.772;2022-11-15T08:20:30;4.10;;;2.72;;
46116;SDS011;32591;48.102;11.772;2022-11-15T08:22:59;5.15;;;2.90;;
46116;SDS011;32591;48.102;11.772;2022-11-15T08:25:29;7.43;;;3.92;;
46116;SDS011;32591;48.102;11.772;2022-11-15T08:27:59;7.75;;;5.63;;
46116;SDS011;32591;48.102;11.772;2022-11-15T08:30:28;7.15;;;3.45;;
46116;SDS011;32591;48.102;11.772;2022-11-15T08:32:56;4.82;;;3.38;;
46116;SDS011;32591;48.102;11.772;2022-11-15T08:35:24;5.95;;;3.83;;
46116;SDS011;32591;48.102;11.772;2022-11-15T08:37:53;4.30;;;3.00;;
46116;SDS011;32591;48.102;11.772;2022-11-15T08:40:20;4.00;;;2.78;;
46116;SDS011;32591;48.102;11.772;2022-11-15T08:42:47;4.50;;;2.42;;
46116;SDS011;32591;48.102;11.772;2022-11-15T08:45:15;5.40;;;2.65;;
46116;SDS011;32591;48.102;11.772;2022-11-15T08:47:42;3.80;;;2.58;;
46116;SDS011;32591;48.102;11.772;2022-11-15T08:50:09;5.65;;;2.95;;
46116;SDS011;32591;48.102;11.772;2022-11-15T08:52:36;4.93;;;2.92;;
46116;SDS011;32591;48.102;11.772;2022-11-15T08:55:05;3.80;;;2.60;;
46116;SDS011;32591;48.102;11.772;2022-11-15T08:57:34;5.07;;;2.95;;
46116;SDS011;32591;48.102;11.772;2022-11-15T09:00:01;4.97;;;2.38;;
46116;SDS011;32591;48.102;11.772;2022-11-15T09:02:29;3.83;;;3.03;;
46116;SDS011;32591;48.102;11.772;2022-11-15T09:04:56;3.95;;;2.30;;
46116;SDS011;32591;48.102;11.772;2022-11-15T09:07:23;5.80;;;2.95;;
46116;SDS011;32591;48.102;11.772;2022-11-15T09:09:50;5.90;;;3.03;;
46116;SDS011;32591;48.102;11.772;2022-11-15T09:12:19;4.10;;;2.45;;
46116;SDS011;32591;48.102;11.772;2022-11-15T09:14:46;3.72;;;2.35;;
46116;SDS011;32591;48.102;11.772;2022-11-15T09:17:13;4.18;;;2.38;;
46116;SDS011;32591;48.102;11.772;2022-11-15T09:19:40;4.32;;;2.53;;
46116;SDS011;32591;48.102;11.772;2022-11-15T09:22:07;3.13;;;2.35;;
46116;SDS011;32591;48.102;11.772;2022-11-15T09:24:34;3.45;;;2.35;;
46116;SDS011;32591;48.102;11.772;2022-11-15T09:27:02;4.90;;;2.42;;
46116;SDS011;32591;48.102;11.772;2022-11-15T09:29:30;3.80;;;2.95;;
46116;SDS011;32591;48.102;11.772;2022-11-15T09:31:58;3.72;;;2.40;;
46116;SDS011;32591;48.102;11.772;2022-11-15T09:34:25;4.32;;;2.33;;
46116;SDS011;32591;48.102;11.772;2022-11-15T09:36:52;3.80;;;2.50;;
46116;SDS011;32591;48.102;11.772;2022-11-15T09:39:19;5.03;;;2.15;;
46116;SDS011;32591;48.102;11.772;2022-11-15T09:41:57;3.53;;;2.10;;
46116;SDS011;32591;48.102;11.772;2022-11-15T09:44:47;3.88;;;2.38;;
46116;SDS011;32591;48.102;11.772;2022-11-15T09:47:38;4.95;;;2.40;;
46116;SDS011;32591;48.102;11.772;2022-11-15T09:50:28;3.70;;;2.28;;
46116;SDS011;32591;48.102;11.772;2022-11-15T09:53:00;5.07;;;2.58;;
46116;SDS011;32591;48.102;11.772;2022-11-15T09:55:30;3.47;;;1.92;;
46116;SDS011;32591;48.102;11.772;2022-11-15T09:58:07;3.13;;;2.40;;
46116;SDS011;32591;48.102;11.772;2022-11-15T10:00:47;3.35;;;2.30;;
46116;SDS011;32591;48.102;11.772;2022-11-15T10:03:20;2.88;;;2.30;;
46116;SDS011;32591;48.102;11.772;2022-11-15T10:05:55;3.83;;;2.35;;
46116;SDS011;32591;48.102;11.772;2022-11-15T10:08:38;4.07;;;2.30;;
46116;SDS011;32591;48.102;11.772;2022-11-15T10:11:18;3.17;;;2.15;;
46116;SDS011;32591;48.102;11.772;2022-11-15T10:13:48;2.40;;;1.90;;
46116;SDS011;32591;48.102;11.772;2022-11-15T10:16:24;3.83;;;2.22;;
46116;SDS011;32591;48.102;11.772;2022-11-15T10:19:18;3.55;;;2.17;;
46116;SDS011;32591;48.102;11.772;2022-11-15T10:21:57;3.40;;;2.25;;
46116;SDS011;32591;48.102;11.772;2022-11-15T10:24:41;3.65;;;2.08;;
46116;SDS011;32591;48.102;11.772;2022-11-15T10:27:11;3.65;;;2.72;;
46116;SDS011;32591;48.102;11.772;2022-11-15T10:29:42;6.20;;;2.20;;
46116;SDS011;32591;48.102;11.772;2022-11-15T10:32:12;4.07;;;2.45;;
46116;SDS011;32591;48.102;11.772;2022-11-15T10:34:45;3.92;;;2.30;;
46116;SDS011;32591;48.102;11.772;2022-11-15T10:37:13;5.75;;;2.90;;
46116;SDS011;32591;48.102;11.772;2022-11-15T10:39:41;4.07;;;2.45;;
46116;SDS011;32591;48.102;11.772;2022-11-15T10:42:15;4.80;;;2.33;;
46116;SDS011;32591;48.102;11.772;2022-11-15T10:44:44;5.90;;;2.90;;
46116;SDS011;32591;48.102;11.772;2022-11-15T10:47:29;3.45;;;2.40;;
46116;SDS011;32591;48.102;11.772;2022-11-15T10:49:58;4.82;;;2.05;;
46116;SDS011;32591;48.102;11.772;2022-11-15T10:52:30;4.55;;;2.20;;
46116;SDS011;32591;48.102;11.772;2022-11-15T10:55:02;4.22;;;2.17;;
46116;SDS011;32591;48.102;11.772;2022-11-15T10:57:48;7.45;;;2.78;;
46116;SDS011;32591;48.102;11.772;2022-11-15T11:00:26;3.65;;;2.50;;
46116;SDS011;32591;48.102;11.772;2022-11-15T11:02:59;3.70;;;2.40;;
46116;SDS011;32591;48.102;11.772;2022-11-15T11:05:28;4.25;;;2.60;;
46116;SDS011;32591;48.102;11.772;2022-11-15T11:07:59;3.60;;;2.30;;
46116;SDS011;32591;48.102;11.772;2022-11-15T11:10:29;3.10;;;2.38;;
46116;SDS011;32591;48.102;11.772;2022-11-15T11:13:12;3.08;;;2.47;;
46116;SDS011;32591;48.102;11.772;2022-11-15T11:15:40;3.63;;;2.47;;
46116;SDS011;32591;48.102;11.772;2022-11-15T11:18:14;5.05;;;2.25;;
46116;SDS011;32591;48.102;11.772;2022-11-15T11:20:49;4.57;;;2.50;;
46116;SDS011;32591;48.102;11.772;2022-11-15T11:23:33;2.78;;;1.90;;
46116;SDS011;32591;48.102;11.772;2022-11-15T11:26:15;3.25;;;2.30;;
46116;SDS011;32591;48.102;11.772;2022-11-15T11:29:02;4.22;;;2.35;;
46116;SDS011;32591;48.102;11.772;2022-11-15T11:31:49;6.20;;;2.20;;
46116;SDS011;32591;48.102;11.772;2022-11-15T11:34:29;3.78;;;2.70;;
46116;SDS011;32591;48.102;11.772;2022-11-15T11:37:11;3.85;;;2.67;;
46116;SDS011;32591;48.102;11.772;2022-11-15T11:39:46;4.28;;;2.47;;
46116;SDS011;32591;48.102;11.772;2022-11-15T11:42:27;3.50;;;2.35;;
46116;SDS011;32591;48.102;11.772;2022-11-15T11:45:04;3.55;;;2.08;;
46116;SDS011;32591;48.102;11.772;2022-11-15T11:47:46;2.85;;;2.28;;
46116;SDS011;32591;48.102;11.772;2022-11-15T11:50:18;2.55;;;1.92;;
46116;SDS011;32591;48.102;11.772;2022-11-15T11:52:52;2.80;;;1.85;;
46116;SDS011;32591;48.102;11.772;2022-11-15T11:55:24;3.90;;;2.05;;
46116;SDS011;32591;48.102;11.772;2022-11-15T11:58:01;4.05;;;2.13;;
46116;SDS011;32591;48.102;11.772;2022-11-15T12:00:38;2.78;;;2.05;;
46116;SDS011;32591;48.102;11.772;2022-11-15T12:03:12;2.72;;;2.00;;
46116;SDS011;32591;48.102;11.772;2022-11-15T12:05:48;4.10;;;2.28;;
46116;SDS011;32591;48.102;11.772;2022-11-15T12:08:27;2.45;;;2.00;;
46116;SDS011;32591;48.102;11.772;2022-11-15T12:11:03;3.63;;;2.22;;
46116;SDS011;32591;48.102;11.772;2022-11-15T12:13:36;4.15;;;2.15;;
46116;SDS011;32591;48.102;11.772;2022-11-15T12:16:06;3.42;;;2.22;;
46116;SDS011;32591;48.102;11.772;2022-11-15T12:18:40;5.50;;;2.20;;
46116;SDS011;32591;48.102;11.772;2022-11-15T12:21:18;3.45;;;1.80;;
46116;SDS011;32591;48.102;11.772;2022-11-15T12:23:57;2.70;;;1.90;;
46116;SDS011;32591;48.102;11.772;2022-11-15T12:26:31;3.45;;;2.03;;
46116;SDS011;32591;48.102;11.772;2022-11-15T12:29:04;3.47;;;2.28;;
46116;SDS011;32591;48.102;11.772;2022-11-15T12:31:39;4.32;;;2.08;;
46116;SDS011;32591;48.102;11.772;2022-11-15T12:34:13;3.13;;;2.13;;
46116;SDS011;32591;48.102;11.772;2022-11-15T12:37:02;5.68;;;2.35;;
46116;SDS011;32591;48.102;11.772;2022-11-15T12:40:18;2.75;;;1.92;;
46116;SDS011;32591;48.102;11.772;2022-11-15T12:43:02;3.03;;;2.15;;
46116;SDS011;32591;48.102;11.772;2022-11-15T12:45:48;4.53;;;2.70;;
46116;SDS011;32591;48.102;11.772;2022-11-15T12:57:36;2.58;;;1.73;;
46116;SDS011;32591;48.102;11.772;2022-11-15T13:00:36;2.60;;;1.80;;
46116;SDS011;32591;48.102;11.772;2022-11-15T13:03:18;3.50;;;2.30;;
46116;SDS011;32591;48.102;11.772;2022-11-15T13:05:55;2.58;;;1.95;;
46116;SDS011;32591;48.102;11.772;2022-11-15T13:08:48;2.70;;;1.85;;
46116;SDS011;32591;48.102;11.772;2022-11-15T13:20:19;2.50;;;1.65;;
46116;SDS011;32591;48.102;11.772;2022-11-15T13:22:50;3.63;;;1.80;;
46116;SDS011;32591;48.102;11.772;2022-11-15T13:25:26;2.97;;;1.85;;
46116;SDS011;32591;48.102;11.772;2022-11-15T13:28:10;3.70;;;2.00;;
46116;SDS011;32591;48.102;11.772;2022-11-15T13:30:50;2.42;;;1.80;;
46116;SDS011;32591;48.102;11.772;2022-11-15T13:33:21;3.65;;;2.38;;
46116;SDS011;32591;48.102;11.772;2022-11-15T13:35:57;3.75;;;2.60;;
46116;SDS011;32591;48.102;11.772;2022-11-15T13:38:28;2.67;;;2.00;;
46116;SDS011;32591;48.102;11.772;2022-11-15T13:40:58;2.58;;;1.88;;
46116;SDS011;32591;48.102;11.772;2022-11-15T13:43:37;3.20;;;2.00;;
46116;SDS011;32591;48.102;11.772;2022-11-15T13:46:10;3.38;;;2.30;;
46116;SDS011;32591;48.102;11.772;2022-11-15T13:48:40;4.20;;;2.75;;
46116;SDS011;32591;48.102;11.772;2022-11-15T13:51:09;3.55;;;2.17;;
46116;SDS011;32591;48.102;11.772;2022-11-15T13:53:46;3.10;;;2.10;;
46116;SDS011;32591;48.102;11.772;2022-11-15T13:56:18;3.50;;;2.45;;
46116;SDS011;32591;48.102;11.772;2022-11-15T13:58:46;4.75;;;2.65;;
46116;SDS011;32591;48.102;11.772;2022-11-15T14:01:15;4.43;;;2.15;;
46116;SDS011;32591;48.102;11.772;2022-11-15T14:03:50;3.25;;;2.28;;
46116;SDS011;32591;48.102;11.772;2022-11-15T14:06:23;3.83;;;2.65;;
46116;SDS011;32591;48.102;11.772;2022-11-15T14:08:59;3.80;;;2.67;;
46116;SDS011;32591;48.102;11.772;2022-11-15T14:11:32;3.88;;;2.60;;
46116;SDS011;32591;48.102;11.772;2022-11-15T14:14:02;3.97;;;2.70;;
46116;SDS011;32591;48.102;11.772;2022-11-15T14:16:41;3.83;;;2.42;;
46116;SDS011;32591;48.102;11.772;2022-11-15T14:19:10;4.80;;;2.83;;
46116;SDS011;32591;48.102;11.772;2022-11-15T14:22:08;5.55;;;3.38;;
46116;SDS011;32591;48.102;11.772;2022-11-15T14:24:38;5.82;;;3.50;;
46116;SDS011;32591;48.102;11.772;2022-11-15T14:27:20;4.35;;;3.15;;
46116;SDS011;32591;48.102;11.772;2022-11-15T14:29:50;5.68;;;3.00;;
46116;SDS011;32591;48.102;11.772;2022-11-15T14:32:18;5.60;;;3.17;;
46116;SDS011;32591;48.102;11.772;2022-11-15T14:34:47;5.38;;;3.42;;
46116;SDS011;32591;48.102;11.772;2022-11-15T14:37:19;3.55;;;2.45;;
46116;SDS011;32591;48.102;11.772;2022-11-15T14:39:49;5.05;;;3.35;;
46116;SDS011;32591;48.102;11.772;2022-11-15T14:42:16;21.17;;;6.28;;
46116;SDS011;32591;48.102;11.772;2022-11-15T14:44:46;17.52;;;6.25;;
46116;SDS011;32591;48.102;11.772;2022-11-15T14:47:14;15.77;;;4.78;;
46116;SDS011;32591;48.102;11.772;2022-11-15T14:49:41;7.95;;;4.00;;
46116;SDS011;32591;48.102;11.772;2022-11-15T14:52:22;5.75;;;3.30;;
46116;SDS011;32591;48.102;11.772;2022-11-15T14:54:53;5.43;;;3.35;;
46116;SDS011;32591;48.102;11.772;2022-11-15T14:57:22;5.20;;;3.45;;
46116;SDS011;32591;48.102;11.772;2022-11-15T14:59:50;5.35;;;3.30;;
46116;SDS011;32591;48.102;11.772;2022-11-15T15:02:18;6.45;;;3.97;;
46116;SDS011;32591;48.102;11.772;2022-11-15T15:04:49;5.75;;;3.20;;
46116;SDS011;32591;48.102;11.772;2022-11-15T15:07:17;5.70;;;3.75;;
46116;SDS011;32591;48.102;11.772;2022-11-15T15:09:44;6.57;;;3.15;;
46116;SDS011;32591;48.102;11.772;2022-11-15T15:12:14;6.40;;;3.17;;
46116;SDS011;32591;48.102;11.772;2022-11-15T15:14:45;8.50;;;3.95;;
46116;SDS011;32591;48.102;11.772;2022-11-15T15:17:14;6.10;;;3.58;;
46116;SDS011;32591;48.102;11.772;2022-11-15T15:19:42;7.00;;;3.33;;
46116;SDS011;32591;48.102;11.772;2022-11-15T15:22:10;10.10;;;5.13;;
46116;SDS011;32591;48.102;11.772;2022-11-15T15:24:41;8.35;;;5.20;;
46116;SDS011;32591;48.102;11.772;2022-11-15T15:27:08;12.25;;;5.20;;
46116;SDS011;32591;48.102;11.772;2022-11-15T15:29:35;11.32;;;4.45;;
46116;SDS011;32591;48.102;11.772;2022-11-15T15:32:04;10.35;;;5.38;;
46116;SDS011;32591;48.102;11.772;2022-11-15T15:34:32;8.82;;;5.03;;
46116;SDS011;32591;48.102;11.772;2022-11-15T15:37:09;14.23;;;6.82;;
46116;SDS011;32591;48.102;11.772;2022-11-15T15:39:50;10.82;;;6.32;;
46116;SDS011;32591;48.102;11.772;2022-11-15T15:42:17;10.05;;;6.45;;
46116;SDS011;32591;48.102;11.772;2022-11-15T15:44:45;11.50;;;6.78;;
46116;SDS011;32591;48.102;11.772;2022-11-15T15:47:15;10.15;;;5.47;;
46116;SDS011;32591;48.102;11.772;2022-11-15T15:49:43;9.07;;;5.25;;
46116;SDS011;32591;48.102;11.772;2022-11-15T15:52:11;8.82;;;5.18;;
46116;SDS011;32591;48.102;11.772;2022-11-15T15:54:38;15.98;;;8.90;;
46116;SDS011;32591;48.102;11.772;2022-11-15T15:57:05;18.70;;;10.25;;
46116;SDS011;32591;48.102;11.772;2022-11-15T15:59:33;13.25;;;7.65;;
46116;SDS011;32591;48.102;11.772;2022-11-15T16:02:00;13.07;;;6.68;;
46116;SDS011;32591;48.102;11.772;2022-11-15T16:04:28;11.45;;;6.55;;
46116;SDS011;32591;48.102;11.772;2022-11-15T16:06:57;9.52;;;6.25;;
46116;SDS011;32591;48.102;11.772;2022-11-15T16:09:26;9.45;;;5.78;;
46116;SDS011;32591;48.102;11.772;2022-11-15T16:12:11;9.93;;;5.55;;
46116;SDS011;32591;48.102;11.772;2022-11-15T16:14:39;8.35;;;5.10;;
46116;SDS011;32591;48.102;11.772;2022-11-15T16:17:08;9.48;;;4.93;;
46116;SDS011;32591;48.102;11.772;2022-11-15T16:19:43;8.18;;;5.00;;
46116;SDS011;32591;48.102;11.772;2022-11-15T16:22:10;8.13;;;4.80;;
46116;SDS011;32591;48.102;11.772;2022-11-15T16:24:37;9.25;;;4.80;;
46116;SDS011;32591;48.102;11.772;2022-11-15T16:27:04;9.55;;;4.32;;
46116;SDS011;32591;48.102;11.772;2022-11-15T16:29:31;6.40;;;4.80;;
46116;SDS011;32591;48.102;11.772;2022-11-15T16:31:58;10.23;;;4.82;;
46116;SDS011;32591;48.102;11.772;2022-11-15T16:34:25;14.77;;;7.95;;
46116;SDS011;32591;48.102;11.772;2022-11-15T16:36:53;8.77;;;5.40;;
46116;SDS011;32591;48.102;11.772;2022-11-15T16:39:20;9.85;;;5.13;;